Time;durP1;ratioP1;P1;durP2;ratioP2;P2;SDS_P1;SDS_P2;PMS_P1;PMS_P2;Temp;Humidity;BMP_temperature;BMP_pressure;BME280_temperature;BME280_humidity;BME280_pressure;Samples;Min_cycle;Max_cycle;Signal;HPM_P1;HPM_P2
2022/10/06 00:00:45;;;;;;;0.10;0.10;;;13.80;99.90;;;;;;5037332;28;20041;-79
2022/10/06 00:03:10;;;;;;;0.50;0.50;;;13.70;99.90;;;;;;5036042;28;20064;-79
2022/10/06 00:05:36;;;;;;;0.30;0.30;;;13.80;99.90;;;;;;5048279;28;20041;-79
2022/10/06 00:08:02;;;;;;;0.10;0.10;;;13.80;99.90;;;;;;5033464;28;20440;-79
2022/10/06 00:10:28;;;;;;;0.08;0.08;;;13.80;99.90;;;;;;5035005;28;20519;-79
2022/10/06 00:12:54;;;;;;;4.03;1.40;;;13.80;99.90;;;;;;5014989;28;20034;-79
2022/10/06 00:15:26;;;;;;;0.05;0.05;;;13.70;99.90;;;;;;5013369;28;20042;-79
2022/10/06 00:17:51;;;;;;;0.00;0.00;;;13.70;99.90;;;;;;5034303;28;20417;-78
2022/10/06 00:20:18;;;;;;;0.30;0.30;;;13.70;99.90;;;;;;5032683;28;20045;-79
2022/10/06 00:22:46;;;;;;;0.10;0.10;;;13.70;99.90;;;;;;5032752;28;20041;-79
2022/10/06 00:25:15;;;;;;;0.28;0.28;;;13.70;99.90;;;;;;5039744;28;20111;-80
2022/10/06 00:27:43;;;;;;;0.20;0.20;;;13.70;99.90;;;;;;5041230;28;20037;-79
2022/10/06 00:30:11;;;;;;;0.00;0.00;;;13.70;99.90;;;;;;5024426;28;20567;-77
2022/10/06 00:32:38;;;;;;;0.45;0.45;;;13.70;99.90;;;;;;5017165;28;20050;-78
2022/10/06 00:35:05;;;;;;;0.30;0.30;;;13.70;99.90;;;;;;5046785;28;20411;-78
2022/10/06 00:37:34;;;;;;;3.42;1.08;;;13.70;99.90;;;;;;5039918;28;20041;-79
2022/10/06 00:40:00;;;;;;;0.10;0.10;;;13.70;99.90;;;;;;5033333;28;20049;-79
2022/10/06 00:42:30;;;;;;;0.10;0.10;;;13.70;99.90;;;;;;5015050;28;20910;-79
2022/10/06 00:45:02;;;;;;;0.50;0.50;;;13.70;99.90;;;;;;5018875;28;20092;-78
2022/10/06 00:47:30;;;;;;;0.08;0.08;;;13.70;99.90;;;;;;5043307;28;20124;-79
2022/10/06 00:49:59;;;;;;;0.00;0.00;;;13.60;99.90;;;;;;5016508;28;20045;-79
2022/10/06 00:52:28;;;;;;;1.75;0.77;;;13.60;99.90;;;;;;5048109;28;20053;-80
2022/10/06 00:54:56;;;;;;;0.30;0.30;;;13.70;99.90;;;;;;5021726;28;20120;-80
2022/10/06 00:57:21;;;;;;;1.13;0.63;;;13.60;99.90;;;;;;5037229;28;20508;-79
2022/10/06 00:59:47;;;;;;;0.10;0.10;;;13.70;99.90;;;;;;5045586;28;20049;-79
2022/10/06 01:02:21;;;;;;;0.28;0.28;;;13.60;99.90;;;;;;5016057;28;20053;-78
2022/10/06 01:04:57;;;;;;;0.00;0.00;;;13.60;99.90;;;;;;5029573;28;20049;-78
2022/10/06 01:07:26;;;;;;;0.32;0.32;;;13.60;99.90;;;;;;5016818;28;20142;-78
2022/10/06 01:09:53;;;;;;;0.00;0.00;;;13.60;99.90;;;;;;5013466;28;20050;-78
2022/10/06 01:12:20;;;;;;;0.80;0.80;;;13.60;99.90;;;;;;5026981;28;20049;-78
2022/10/06 01:14:46;;;;;;;0.20;0.20;;;13.60;99.90;;;;;;5031808;28;20053;-78
2022/10/06 01:17:19;;;;;;;1.90;0.75;;;13.60;99.90;;;;;;5036463;28;20044;-78
2022/10/06 01:19:50;;;;;;;;;;;13.60;99.90;;;;;;5027572;28;20552;-79
2022/10/06 01:22:23;;;;;;;0.10;0.10;;;13.50;99.90;;;;;;5029591;28;19929;-80
2022/10/06 01:24:51;;;;;;;0.10;0.10;;;13.50;99.90;;;;;;5030637;28;20053;-79
2022/10/06 01:27:18;;;;;;;10.23;2.70;;;13.50;99.90;;;;;;5012405;28;20464;-79
2022/10/06 01:29:44;;;;;;;0.08;0.08;;;13.50;99.90;;;;;;5014723;28;20053;-79
2022/10/06 01:32:10;;;;;;;0.10;0.10;;;13.50;99.90;;;;;;5051658;28;20059;-81
2022/10/06 01:34:35;;;;;;;0.10;0.10;;;13.50;99.90;;;;;;5022367;28;20123;-82
2022/10/06 01:37:01;;;;;;;0.10;0.10;;;13.50;99.90;;;;;;5030594;28;20053;-80
2022/10/06 01:39:26;;;;;;;0.00;0.00;;;13.50;99.90;;;;;;5034687;28;20056;-79
2022/10/06 01:41:52;;;;;;;0.55;0.40;;;13.50;99.90;;;;;;5042188;28;20044;-80
2022/10/06 01:44:17;;;;;;;0.10;0.10;;;13.40;99.90;;;;;;5021150;28;20497;-80
2022/10/06 01:46:43;;;;;;;0.20;0.20;;;13.40;99.90;;;;;;5021255;28;20034;-80
2022/10/06 01:49:08;;;;;;;0.10;0.10;;;13.40;99.90;;;;;;5032776;28;20187;-80
2022/10/06 01:51:34;;;;;;;0.10;0.10;;;13.40;99.90;;;;;;5032529;28;20037;-82
2022/10/06 01:53:59;;;;;;;8.63;0.93;;;13.40;99.90;;;;;;5036662;28;20440;-80
2022/10/06 01:56:25;;;;;;;0.10;0.10;;;13.40;99.90;;;;;;5030892;28;20529;-81
2022/10/06 01:58:51;;;;;;;0.10;0.10;;;13.40;99.90;;;;;;5031000;28;20061;-81
2022/10/06 02:01:16;;;;;;;0.15;0.15;;;13.40;99.90;;;;;;5032606;28;20056;-82
2022/10/06 02:03:42;;;;;;;0.75;0.52;;;13.40;99.90;;;;;;5025620;28;20057;-81
2022/10/06 02:06:08;;;;;;;0.10;0.10;;;13.50;99.90;;;;;;5033559;28;20052;-81
2022/10/06 02:08:34;;;;;;;0.10;0.10;;;13.50;99.90;;;;;;5052011;28;20131;-82
2022/10/06 02:11:05;;;;;;;3.65;0.57;;;13.50;99.90;;;;;;5036467;28;20470;-79
2022/10/06 02:13:31;;;;;;;0.10;0.10;;;13.60;99.90;;;;;;5027650;28;20033;-81
2022/10/06 02:15:56;;;;;;;0.03;0.03;;;13.60;99.90;;;;;;5035222;28;20504;-80
2022/10/06 02:18:22;;;;;;;0.10;0.10;;;13.50;99.90;;;;;;5016183;28;20593;-79
2022/10/06 02:20:48;;;;;;;0.10;0.10;;;13.50;99.90;;;;;;5045377;28;20048;-80
2022/10/06 02:23:14;;;;;;;2.20;1.00;;;13.40;99.90;;;;;;5020230;28;20046;-81
2022/10/06 02:25:39;;;;;;;0.00;0.00;;;13.40;99.90;;;;;;5030333;28;20037;-81
2022/10/06 02:28:05;;;;;;;0.10;0.10;;;13.40;99.90;;;;;;5032112;28;20135;-81
2022/10/06 02:30:30;;;;;;;0.00;0.00;;;13.40;99.90;;;;;;5025362;28;20038;-82
2022/10/06 02:32:56;;;;;;;13.25;2.15;;;13.30;99.90;;;;;;5011086;28;20049;-83
2022/10/06 02:35:22;;;;;;;0.35;0.30;;;13.30;99.90;;;;;;5011172;28;20053;-82
2022/10/06 02:37:48;;;;;;;0.20;0.20;;;13.30;99.90;;;;;;5041503;28;20468;-80
2022/10/06 02:40:15;;;;;;;0.00;0.00;;;13.30;99.90;;;;;;5027110;28;20057;-81
2022/10/06 02:42:40;;;;;;;0.25;0.25;;;13.20;99.90;;;;;;5017525;28;20112;-81
2022/10/06 02:45:07;;;;;;;0.25;0.25;;;13.20;99.90;;;;;;5018639;28;20473;-82
2022/10/06 02:47:37;;;;;;;0.10;0.10;;;13.20;99.90;;;;;;5007681;28;20045;-82
2022/10/06 02:50:05;;;;;;;0.10;0.10;;;13.20;99.90;;;;;;5008591;28;21724;-83
2022/10/06 02:52:36;;;;;;;0.10;0.10;;;13.30;99.90;;;;;;5008948;28;20041;-83
2022/10/06 02:55:05;;;;;;;0.10;0.10;;;13.20;99.90;;;;;;5022075;28;20049;-85
2022/10/06 02:57:31;;;;;;;0.10;0.10;;;13.20;99.90;;;;;;5046771;28;20049;-84
2022/10/06 02:59:56;;;;;;;0.10;0.10;;;13.20;99.90;;;;;;5042485;28;20511;-83
2022/10/06 03:02:22;;;;;;;0.05;0.05;;;13.20;99.90;;;;;;5023334;28;20145;-83
2022/10/06 03:04:48;;;;;;;0.55;0.55;;;13.20;99.90;;;;;;5011189;28;20060;-83
2022/10/06 03:07:14;;;;;;;6.43;2.15;;;13.20;99.90;;;;;;5039060;28;20413;-84
2022/10/06 03:09:39;;;;;;;0.10;0.10;;;13.20;99.90;;;;;;5032997;28;20053;-83
2022/10/06 03:12:05;;;;;;;1.55;1.45;;;13.20;99.90;;;;;;5025955;28;20046;-81
2022/10/06 03:14:31;;;;;;;0.00;0.00;;;13.20;99.90;;;;;;5037202;28;20080;-82
2022/10/06 03:16:57;;;;;;;0.55;0.55;;;13.20;99.90;;;;;;5021279;28;20045;-82
2022/10/06 03:19:22;;;;;;;1.17;1.08;;;13.20;99.90;;;;;;5035073;28;20053;-82
2022/10/06 03:21:48;;;;;;;0.00;0.00;;;13.20;99.90;;;;;;5026035;28;20507;-82
2022/10/06 03:24:14;;;;;;;0.85;0.85;;;13.20;99.90;;;;;;5027456;28;20056;-82
2022/10/06 03:26:43;;;;;;;0.20;0.20;;;13.10;99.90;;;;;;5039139;28;20045;-81
2022/10/06 03:29:09;;;;;;;33.25;1.55;;;13.10;99.90;;;;;;5049377;28;20135;-81
2022/10/06 03:31:35;;;;;;;0.00;0.00;;;13.10;99.90;;;;;;5029954;28;20108;-81
2022/10/06 03:34:01;;;;;;;0.10;0.10;;;13.10;99.90;;;;;;5032462;28;20160;-83
2022/10/06 03:36:28;;;;;;;0.10;0.10;;;13.10;99.90;;;;;;5028686;28;20042;-84
2022/10/06 03:38:54;;;;;;;0.10;0.10;;;13.00;99.90;;;;;;5030521;28;20037;-84
2022/10/06 03:41:28;;;;;;;1.17;1.08;;;13.00;99.90;;;;;;5027221;28;20041;-82
2022/10/06 03:43:56;;;;;;;0.20;0.20;;;13.00;99.90;;;;;;5031935;28;20048;-82
2022/10/06 03:46:24;;;;;;;0.10;0.10;;;13.00;99.90;;;;;;5040656;28;20124;-82
2022/10/06 03:48:51;;;;;;;2.25;1.35;;;13.00;99.90;;;;;;5011686;28;20046;-82
2022/10/06 03:51:21;;;;;;;0.00;0.00;;;13.00;99.90;;;;;;5029611;28;20132;-82
2022/10/06 03:53:49;;;;;;;0.10;0.10;;;12.90;99.90;;;;;;5029178;28;20038;-82
2022/10/06 03:56:28;;;;;;;0.10;0.10;;;12.90;99.90;;;;;;5027090;28;20064;-82
2022/10/06 03:58:56;;;;;;;0.00;0.00;;;12.90;99.90;;;;;;5031875;28;20053;-83
2022/10/06 04:01:23;;;;;;;0.00;0.00;;;12.90;99.90;;;;;;5043178;28;20048;-83
2022/10/06 04:03:49;;;;;;;0.00;0.00;;;13.00;99.90;;;;;;5030356;28;20084;-84
2022/10/06 04:06:18;;;;;;;0.10;0.10;;;13.00;99.90;;;;;;5027574;28;20061;-82
2022/10/06 04:08:45;;;;;;;0.10;0.10;;;13.00;99.90;;;;;;5038380;28;20053;-82
2022/10/06 04:11:19;;;;;;;0.10;0.10;;;13.00;99.90;;;;;;5026493;28;20615;-83
2022/10/06 04:13:44;;;;;;;0.00;0.00;;;13.00;99.90;;;;;;5021000;28;20069;-82
2022/10/06 04:16:11;;;;;;;0.28;0.28;;;13.00;99.90;;;;;;5027992;28;20076;-82
2022/10/06 04:18:37;;;;;;;0.00;0.00;;;13.00;99.90;;;;;;5032336;28;20138;-82
2022/10/06 04:21:03;;;;;;;0.10;0.10;;;13.10;99.90;;;;;;5033097;28;20129;-82
2022/10/06 04:23:29;;;;;;;4.18;1.55;;;13.10;99.90;;;;;;5013137;28;20137;-81
2022/10/06 04:25:58;;;;;;;0.10;0.10;;;13.10;99.90;;;;;;5013239;28;20117;-81
2022/10/06 04:28:24;;;;;;;0.10;0.10;;;13.10;99.90;;;;;;5038440;28;20049;-81
2022/10/06 04:30:57;;;;;;;1.55;1.08;;;13.20;99.90;;;;;;5033232;28;20036;-81
2022/10/06 04:33:23;;;;;;;0.10;0.10;;;13.20;99.90;;;;;;5030853;28;20496;-82
2022/10/06 04:36:00;;;;;;;0.10;0.10;;;13.20;99.90;;;;;;5029055;28;20048;-82
2022/10/06 04:38:26;;;;;;;4.22;0.75;;;13.20;99.90;;;;;;5022531;28;20123;-84
2022/10/06 04:40:52;;;;;;;0.00;0.00;;;13.20;99.90;;;;;;5022048;28;20045;-83
2022/10/06 04:43:17;;;;;;;0.10;0.10;;;13.20;99.90;;;;;;5031206;28;20140;-83
2022/10/06 04:45:43;;;;;;;0.10;0.10;;;13.20;99.90;;;;;;5032270;28;20042;-81
2022/10/06 04:48:08;;;;;;;0.00;0.00;;;13.20;99.90;;;;;;5035396;28;20493;-81
2022/10/06 04:50:34;;;;;;;0.10;0.10;;;13.10;99.90;;;;;;5043115;28;20045;-83
2022/10/06 04:53:00;;;;;;;0.95;0.93;;;13.00;99.90;;;;;;5024406;28;20038;-83
2022/10/06 04:55:26;;;;;;;0.10;0.10;;;13.00;99.90;;;;;;5017934;28;20067;-84
2022/10/06 04:57:54;;;;;;;2.15;0.60;;;13.00;99.90;;;;;;5034209;28;20041;-83
2022/10/06 05:00:24;;;;;;;1.35;0.38;;;13.00;99.90;;;;;;5030594;28;20509;-83
2022/10/06 05:02:51;;;;;;;0.40;0.40;;;13.00;99.90;;;;;;5039898;28;20087;-83
2022/10/06 05:05:17;;;;;;;0.20;0.20;;;12.90;99.90;;;;;;5026125;28;20145;-82
2022/10/06 05:07:44;;;;;;;0.45;0.45;;;12.90;99.90;;;;;;5028630;28;20529;-83
2022/10/06 05:10:10;;;;;;;0.00;0.00;;;12.90;99.90;;;;;;5032983;28;20061;-82
2022/10/06 05:12:35;;;;;;;0.05;0.05;;;12.90;99.90;;;;;;5030942;28;20045;-81
2022/10/06 05:15:02;;;;;;;0.10;0.10;;;12.90;99.90;;;;;;5035821;28;20067;-82
2022/10/06 05:17:28;;;;;;;0.10;0.10;;;12.90;99.90;;;;;;5021395;28;20129;-81
2022/10/06 05:19:53;;;;;;;0.10;0.10;;;12.90;99.90;;;;;;5019615;28;20128;-81
2022/10/06 05:22:19;;;;;;;0.45;0.45;;;12.90;99.90;;;;;;5041018;28;20041;-78
2022/10/06 05:24:44;;;;;;;0.30;0.30;;;12.90;99.90;;;;;;5028105;28;20050;-78
2022/10/06 05:27:10;;;;;;;0.10;0.10;;;12.90;99.90;;;;;;5024937;28;20034;-78
2022/10/06 05:29:36;;;;;;;0.10;0.10;;;12.90;99.90;;;;;;5032395;28;20137;-79
2022/10/06 05:32:01;;;;;;;0.00;0.00;;;12.80;99.90;;;;;;5027498;28;20065;-78
2022/10/06 05:34:27;;;;;;;0.10;0.10;;;12.80;99.90;;;;;;5028647;28;20163;-78
2022/10/06 05:36:52;;;;;;;0.10;0.10;;;12.80;99.90;;;;;;5051593;28;20045;-79
2022/10/06 05:39:18;;;;;;;2.28;1.33;;;12.80;99.90;;;;;;5038579;28;20131;-79
2022/10/06 05:41:44;;;;;;;2.50;1.27;;;12.80;99.90;;;;;;5019807;28;20049;-79
2022/10/06 05:44:09;;;;;;;0.10;0.10;;;12.80;99.90;;;;;;5034825;28;20037;-79
2022/10/06 05:46:35;;;;;;;1.42;1.33;;;12.80;99.90;;;;;;5030288;28;20083;-80
2022/10/06 05:49:03;;;;;;;0.47;0.47;;;12.70;99.90;;;;;;5028840;28;20485;-79
2022/10/06 05:51:31;;;;;;;0.10;0.10;;;12.70;99.90;;;;;;5027772;28;20029;-81
2022/10/06 05:53:57;;;;;;;0.10;0.10;;;12.70;99.90;;;;;;5032074;28;20045;-80
2022/10/06 05:56:28;;;;;;;0.10;0.10;;;12.70;99.90;;;;;;5040581;28;20060;-79
2022/10/06 05:58:56;;;;;;;0.10;0.10;;;12.70;99.90;;;;;;5020998;28;20382;-78
2022/10/06 06:01:22;;;;;;;0.47;0.47;;;12.70;99.90;;;;;;5038880;28;20070;-79
2022/10/06 06:03:49;;;;;;;0.10;0.10;;;12.70;99.90;;;;;;5051010;28;20060;-78
2022/10/06 06:06:26;;;;;;;0.10;0.10;;;12.70;99.90;;;;;;5041339;28;20052;-78
2022/10/06 06:09:00;;;;;;;0.10;0.10;;;12.70;99.90;;;;;;5020940;28;20052;-78
2022/10/06 06:11:27;;;;;;;0.00;0.00;;;12.70;99.90;;;;;;5011205;28;20053;-77
2022/10/06 06:14:06;;;;;;;0.10;0.10;;;12.70;99.90;;;;;;5035287;28;20072;-77
2022/10/06 06:16:33;;;;;;;0.00;0.00;;;12.70;99.90;;;;;;5030853;28;20045;-78
2022/10/06 06:18:59;;;;;;;1.27;1.17;;;12.70;99.90;;;;;;5051423;28;20052;-76
2022/10/06 06:21:25;;;;;;;0.03;0.03;;;12.70;99.90;;;;;;5037632;28;20059;-77
2022/10/06 06:23:52;;;;;;;0.03;0.03;;;12.70;99.90;;;;;;5025339;28;20171;-77
2022/10/06 06:26:24;;;;;;;1.20;1.10;;;12.80;99.90;;;;;;5039742;28;20050;-77
2022/10/06 06:28:52;;;;;;;0.10;0.10;;;12.80;99.90;;;;;;5045344;28;20037;-77
2022/10/06 06:31:20;;;;;;;1.00;0.73;;;12.80;99.90;;;;;;5025253;28;20087;-77
2022/10/06 06:33:47;;;;;;;0.20;0.20;;;12.80;99.90;;;;;;5029456;28;20049;-77
2022/10/06 06:36:19;;;;;;;0.10;0.10;;;12.80;99.90;;;;;;5049399;28;20556;-78
2022/10/06 06:38:50;;;;;;;5.53;0.55;;;12.80;99.90;;;;;;5035088;28;20095;-78
2022/10/06 06:41:18;;;;;;;1.02;0.95;;;12.80;99.90;;;;;;5032018;28;20484;-78
2022/10/06 06:43:45;;;;;;;0.00;0.00;;;12.80;99.90;;;;;;5036942;28;20171;-78
2022/10/06 06:46:13;;;;;;;0.85;0.45;;;12.90;99.90;;;;;;5031814;28;20497;-78
2022/10/06 06:48:40;;;;;;;0.10;0.10;;;13.00;99.90;;;;;;5031392;28;20045;-78
2022/10/06 06:51:06;;;;;;;0.10;0.10;;;13.00;99.90;;;;;;5028447;28;20610;-78
2022/10/06 06:53:32;;;;;;;0.00;0.00;;;13.00;99.90;;;;;;5039985;28;21929;-78
2022/10/06 06:55:58;;;;;;;0.10;0.10;;;13.00;99.90;;;;;;5022904;28;20568;-80
2022/10/06 06:58:24;;;;;;;0.20;0.20;;;13.00;99.90;;;;;;5037612;28;20099;-78
2022/10/06 07:00:49;;;;;;;0.20;0.20;;;13.00;99.90;;;;;;5047164;28;20045;-78
2022/10/06 07:03:18;;;;;;;0.15;0.15;;;13.00;99.90;;;;;;5048225;28;20068;-79
2022/10/06 07:05:47;;;;;;;6.60;0.93;;;13.00;99.90;;;;;;5031473;28;20054;-79
2022/10/06 07:08:14;;;;;;;0.10;0.10;;;13.00;99.90;;;;;;5047000;28;20037;-78
2022/10/06 07:10:43;;;;;;;1.35;1.08;;;13.10;99.90;;;;;;5033256;28;20048;-78
2022/10/06 07:13:13;;;;;;;0.13;0.13;;;13.10;99.90;;;;;;5042767;28;20081;-78
2022/10/06 07:26:38;;;;;;;1.02;1.00;;;13.30;99.90;;;;;;5048616;28;20484;-77
2022/10/06 07:29:04;;;;;;;0.17;0.17;;;13.40;99.90;;;;;;5046554;28;20052;-77
2022/10/06 07:31:32;;;;;;;0.30;0.30;;;13.40;99.90;;;;;;5048492;28;20116;-77
2022/10/06 07:34:05;;;;;;;1.63;0.75;;;13.40;99.90;;;;;;5038222;28;20049;-76
2022/10/06 07:36:31;;;;;;;2.90;2.20;;;13.50;99.90;;;;;;5022357;28;20383;-77
2022/10/06 07:38:56;;;;;;;11.05;0.93;;;13.50;99.90;;;;;;5042877;28;20064;-77
2022/10/06 07:41:22;;;;;;;0.98;0.90;;;13.50;99.90;;;;;;5026044;28;20054;-79
2022/10/06 07:43:48;;;;;;;0.57;0.57;;;13.50;99.90;;;;;;5025116;28;20056;-79
2022/10/06 07:46:14;;;;;;;1.00;0.57;;;13.60;99.90;;;;;;5030869;28;20037;-81
2022/10/06 07:48:40;;;;;;;0.20;0.20;;;13.60;99.90;;;;;;5045454;28;20101;-78
2022/10/06 07:51:17;;;;;;;0.00;0.00;;;13.60;99.90;;;;;;5041101;28;20053;-78
2022/10/06 07:53:49;;;;;;;0.73;0.73;;;13.70;99.90;;;;;;5028592;28;20048;-79
2022/10/06 07:56:16;;;;;;;0.77;0.68;;;13.70;99.90;;;;;;5027014;28;20482;-79
2022/10/06 07:58:43;;;;;;;0.30;0.30;;;13.70;99.90;;;;;;5025952;28;20489;-79
2022/10/06 08:01:11;;;;;;;1.77;1.67;;;13.70;99.90;;;;;;5025797;28;20052;-79
2022/10/06 08:03:39;;;;;;;0.10;0.10;;;13.80;99.90;;;;;;5027352;28;20452;-80
2022/10/06 08:06:05;;;;;;;0.30;0.30;;;13.80;99.90;;;;;;5022157;28;20083;-80
2022/10/06 08:08:35;;;;;;;0.90;0.90;;;13.80;99.90;;;;;;5042197;28;20072;-79
2022/10/06 08:11:01;;;;;;;0.10;0.10;;;13.90;99.90;;;;;;5039564;28;20048;-79
2022/10/06 08:13:27;;;;;;;0.00;0.00;;;13.90;99.90;;;;;;5045467;28;20033;-82
2022/10/06 08:15:55;;;;;;;0.08;0.08;;;13.90;99.90;;;;;;5029222;28;20049;-81
2022/10/06 08:18:21;;;;;;;0.10;0.10;;;14.00;99.90;;;;;;5032209;28;20050;-81
2022/10/06 08:20:46;;;;;;;0.30;0.30;;;14.00;99.90;;;;;;5030452;28;20407;-81
2022/10/06 08:23:12;;;;;;;0.35;0.35;;;14.10;99.90;;;;;;5053258;28;20110;-80
2022/10/06 08:25:41;;;;;;;0.10;0.10;;;14.10;99.90;;;;;;5051955;28;20044;-81
2022/10/06 08:28:11;;;;;;;0.10;0.10;;;14.10;99.90;;;;;;5053694;28;20043;-78
2022/10/06 08:30:36;;;;;;;0.05;0.05;;;14.20;99.90;;;;;;5036556;28;20060;-80
2022/10/06 08:33:04;;;;;;;15.65;1.10;;;14.20;99.90;;;;;;5041114;28;20041;-80
2022/10/06 08:35:31;;;;;;;0.10;0.10;;;14.20;99.90;;;;;;5054478;28;20115;-81
2022/10/06 08:37:57;;;;;;;0.00;0.00;;;14.30;99.90;;;;;;5042301;28;20113;-82
2022/10/06 08:40:25;;;;;;;0.10;0.10;;;14.30;99.90;;;;;;5033780;28;20454;-81
2022/10/06 08:42:54;;;;;;;0.00;0.00;;;14.30;99.90;;;;;;5032924;28;20073;-80
2022/10/06 08:45:34;;;;;;;21.52;0.95;;;14.40;99.90;;;;;;5029491;28;20132;-79
2022/10/06 08:48:16;;;;;;;0.00;0.00;;;14.40;99.90;;;;;;5035787;28;20041;-81
2022/10/06 08:50:57;;;;;;;2.08;0.90;;;14.40;99.90;;;;;;5041705;28;20045;-82
2022/10/06 08:53:36;;;;;;;1.92;1.15;;;14.50;99.90;;;;;;5030312;28;20060;-81
2022/10/06 08:56:25;;;;;;;2.33;2.17;;;14.60;99.90;;;;;;5029045;28;20071;-83
2022/10/06 08:59:17;;;;;;;0.88;0.55;;;14.60;99.90;;;;;;5024890;28;20073;-83
2022/10/06 09:01:48;;;;;;;0.10;0.10;;;14.60;99.90;;;;;;5025628;28;20057;-83
2022/10/06 09:04:29;;;;;;;1.27;1.17;;;14.60;99.90;;;;;;5028120;28;20058;-85
2022/10/06 09:07:05;;;;;;;0.10;0.10;;;14.70;99.90;;;;;;5043153;28;20084;-83
2022/10/06 09:09:45;;;;;;;28.17;2.50;;;14.70;99.90;;;;;;5032128;28;20041;-85
2022/10/06 09:12:26;;;;;;;3.03;2.15;;;14.80;99.90;;;;;;5017512;28;20486;-84
2022/10/06 09:15:06;;;;;;;0.30;0.30;;;15.50;99.90;;;;;;5021826;28;20049;-80
2022/10/06 09:17:38;;;;;;;0.17;0.17;;;16.40;99.90;;;;;;5012526;28;20049;-83
2022/10/06 09:20:19;;;;;;;0.63;0.63;;;16.90;99.90;;;;;;5011927;28;20078;-83
2022/10/06 09:22:48;;;;;;;0.10;0.10;;;16.70;99.90;;;;;;5009542;28;20049;-83
2022/10/06 09:25:17;;;;;;;0.10;0.10;;;16.50;99.90;;;;;;5031062;28;20041;-81
2022/10/06 09:27:49;;;;;;;0.30;0.30;;;16.20;99.90;;;;;;5032369;28;20068;-83
2022/10/06 09:30:15;;;;;;;1.75;0.80;;;16.60;99.90;;;;;;5025359;28;20136;-82
2022/10/06 09:32:47;;;;;;;0.77;0.57;;;16.60;99.90;;;;;;5042826;28;20044;-80
2022/10/06 09:35:21;;;;;;;1.60;0.43;;;17.10;99.90;;;;;;5026006;28;20512;-78
2022/10/06 09:38:02;;;;;;;0.00;0.00;;;17.60;99.90;;;;;;5012978;28;20046;-79
2022/10/06 09:40:35;;;;;;;0.10;0.10;;;18.20;99.90;;;;;;5022638;28;20120;-78
2022/10/06 09:43:15;;;;;;;;;;;18.70;99.90;;;;;;5051063;28;20061;-79
2022/10/06 09:45:41;;;;;;;0.95;0.95;;;19.00;99.90;;;;;;5020525;28;19983;-77
2022/10/06 09:48:12;;;;;;;12.15;1.00;;;19.00;99.90;;;;;;5050386;28;20436;-77
2022/10/06 09:50:39;;;;;;;0.00;0.00;;;19.00;99.90;;;;;;5030069;28;20045;-78
2022/10/06 09:53:10;;;;;;;0.10;0.10;;;19.10;99.90;;;;;;5026058;28;20049;-78
2022/10/06 09:55:36;;;;;;;0.03;0.03;;;18.90;99.90;;;;;;5037173;28;20044;-76
2022/10/06 09:58:21;;;;;;;0.65;0.43;;;18.90;99.90;;;;;;5052153;28;20045;-78
2022/10/06 10:00:55;;;;;;;0.00;0.00;;;18.50;99.90;;;;;;5044003;28;20049;-82
2022/10/06 10:03:24;;;;;;;0.00;0.00;;;18.00;99.90;;;;;;5029855;28;20061;-84
2022/10/06 10:05:53;;;;;;;0.00;0.00;;;17.70;99.90;;;;;;5045481;28;20072;-82
2022/10/06 10:08:22;;;;;;;0.03;0.03;;;17.50;99.90;;;;;;5028413;28;20132;-80
2022/10/06 10:12:23;;;;;;;0.10;0.10;;;17.20;99.90;;;;;;5024556;28;20053;-82
2022/10/06 10:13:58;;;;;;;0.32;0.32;;;17.00;99.90;;;;;;5029715;28;20136;-83
2022/10/06 10:16:33;;;;;;;0.08;0.08;;;17.10;99.90;;;;;;5017148;28;20056;-80
2022/10/06 10:19:01;;;;;;;0.10;0.10;;;17.20;99.90;;;;;;5031158;28;20396;-84
2022/10/06 10:21:29;;;;;;;0.10;0.10;;;17.20;99.90;;;;;;5026814;28;20102;-81
2022/10/06 10:24:01;;;;;;;0.10;0.10;;;17.20;99.90;;;;;;5023469;28;20514;-79
2022/10/06 10:26:43;;;;;;;0.00;0.00;;;17.20;99.90;;;;;;5029710;28;20087;-79
2022/10/06 10:29:09;;;;;;;0.00;0.00;;;17.20;99.90;;;;;;5039183;28;20132;-83
2022/10/06 10:31:59;;;;;;;0.00;0.00;;;17.30;99.90;;;;;;5035527;28;20116;-80
2022/10/06 10:34:59;;;;;;;3.03;1.17;;;17.50;99.90;;;;;;5028579;28;20059;-81
2022/10/06 10:37:34;;;;;;;0.00;0.00;;;17.40;99.90;;;;;;5025354;28;20053;-77
2022/10/06 10:40:16;;;;;;;0.08;0.08;;;17.40;99.90;;;;;;5036726;28;20046;-79
2022/10/06 10:43:23;;;;;;;0.47;0.47;;;17.40;99.90;;;;;;5021049;28;20077;-79
2022/10/06 10:46:00;;;;;;;0.03;0.03;;;17.60;99.90;;;;;;5015346;28;20410;-79
2022/10/06 10:48:41;;;;;;;0.20;0.20;;;17.70;99.90;;;;;;5046422;28;20049;-79
2022/10/06 10:51:12;;;;;;;0.13;0.13;;;17.80;99.90;;;;;;5038687;28;20061;-80
2022/10/06 10:54:01;;;;;;;0.13;0.13;;;17.80;99.90;;;;;;5029900;28;20052;-81
2022/10/06 10:56:31;;;;;;;24.38;0.90;;;17.80;99.90;;;;;;5014463;28;20100;-81
2022/10/06 10:59:20;;;;;;;0.00;0.00;;;17.60;99.90;;;;;;5019236;28;20049;-81
2022/10/06 11:01:54;;;;;;;6.40;1.20;;;17.60;99.90;;;;;;5038263;28;20120;-83
2022/10/06 11:04:20;;;;;;;0.65;0.65;;;17.60;99.90;;;;;;5027038;28;20061;-82
2022/10/06 11:07:01;;;;;;;0.00;0.00;;;17.70;99.90;;;;;;5029526;28;20060;-80
2022/10/06 11:09:50;;;;;;;0.00;0.00;;;17.60;99.90;;;;;;5028381;28;20392;-79
2022/10/06 11:12:48;;;;;;;0.00;0.00;;;17.70;99.90;;;;;;5012097;28;20441;-82
2022/10/06 11:15:38;;;;;;;0.40;0.40;;;17.60;99.90;;;;;;5020154;28;20065;-82
2022/10/06 11:18:21;;;;;;;0.00;0.00;;;17.60;99.90;;;;;;5012068;28;20058;-83
2022/10/06 11:21:24;;;;;;;1.48;0.90;;;17.60;99.90;;;;;;5047989;28;20452;-83
2022/10/06 11:23:55;;;;;;;0.90;0.90;;;17.80;99.90;;;;;;5018157;28;20073;-81
2022/10/06 11:26:40;;;;;;;1.45;0.52;;;18.00;99.90;;;;;;5029019;28;20095;-81
2022/10/06 11:29:35;;;;;;;0.10;0.10;;;17.70;99.90;;;;;;5015386;28;20050;-81
2022/10/06 11:32:03;;;;;;;0.28;0.28;;;18.10;99.90;;;;;;5010380;28;20057;-81
2022/10/06 11:34:28;;;;;;;0.10;0.10;;;18.30;99.90;;;;;;5030162;28;20091;-83
2022/10/06 11:37:19;;;;;;;0.00;0.00;;;18.60;99.90;;;;;;5022973;28;20516;-82
2022/10/06 11:40:31;;;;;;;0.10;0.10;;;19.10;99.90;;;;;;5026058;28;20076;-80
2022/10/06 11:43:17;;;;;;;0.90;0.90;;;18.90;99.90;;;;;;5021555;28;20096;-82
2022/10/06 11:46:19;;;;;;;0.47;0.47;;;19.10;99.90;;;;;;5033182;28;20045;-80
2022/10/06 11:48:45;;;;;;;0.00;0.00;;;19.30;99.90;;;;;;5008583;28;20057;-82
2022/10/06 11:51:23;;;;;;;0.00;0.00;;;19.50;99.90;;;;;;5030308;28;20048;-83
2022/10/06 11:53:50;;;;;;;0.45;0.22;;;19.60;99.90;;;;;;5038530;28;20053;-83
2022/10/06 11:56:15;;;;;;;0.00;0.00;;;19.80;99.90;;;;;;5041310;28;20163;-84
2022/10/06 11:58:50;;;;;;;0.00;0.00;;;20.10;99.90;;;;;;5025641;28;20124;-83
2022/10/06 12:01:37;;;;;;;2.70;0.70;;;20.50;99.90;;;;;;5046987;28;20082;-85
2022/10/06 12:04:09;;;;;;;0.05;0.05;;;20.50;99.90;;;;;;5035591;28;20106;-83
2022/10/06 12:06:41;;;;;;;0.00;0.00;;;20.60;99.90;;;;;;5022902;28;20207;-84
2022/10/06 12:09:25;;;;;;;0.28;0.28;;;20.40;99.90;;;;;;5025877;28;20095;-80
2022/10/06 12:12:13;;;;;;;0.00;0.00;;;20.10;99.90;;;;;;5027053;28;20112;-81
2022/10/06 12:15:03;;;;;;;0.00;0.00;;;20.40;99.90;;;;;;5021942;28;20061;-82
2022/10/06 12:17:53;;;;;;;0.00;0.00;;;20.20;99.90;;;;;;5029332;28;20064;-82
2022/10/06 12:20:56;;;;;;;0.00;0.00;;;20.30;99.90;;;;;;5038896;28;20060;-84
2022/10/06 12:23:44;;;;;;;0.00;0.00;;;19.70;99.90;;;;;;5016319;28;20054;-81
2022/10/06 12:26:40;;;;;;;0.55;0.55;;;19.60;99.90;;;;;;5027375;28;20041;-82
2022/10/06 12:29:27;;;;;;;0.17;0.15;;;19.90;99.90;;;;;;5029879;28;20405;-83
2022/10/06 12:32:12;;;;;;;0.50;0.50;;;20.20;99.90;;;;;;5034463;28;20038;-79
2022/10/06 12:34:38;;;;;;;1.55;0.70;;;20.40;99.90;;;;;;5032300;28;20397;-82
2022/10/06 12:37:38;;;;;;;0.00;0.00;;;21.00;99.90;;;;;;5019767;28;20034;-80
2022/10/06 12:40:39;;;;;;;0.00;0.00;;;21.00;99.90;;;;;;5027309;28;20050;-82
2022/10/06 12:43:13;;;;;;;0.00;0.00;;;21.30;99.90;;;;;;5017094;28;20037;-82
2022/10/06 12:45:47;;;;;;;0.00;0.00;;;21.20;99.70;;;;;;5034283;28;20044;-84
2022/10/06 12:48:55;;;;;;;0.00;0.00;;;21.40;99.10;;;;;;5041000;28;20046;-82
2022/10/06 12:51:45;;;;;;;0.40;0.40;;;21.10;98.20;;;;;;5002723;28;20062;-84
2022/10/06 12:54:18;;;;;;;0.52;0.28;;;21.00;99.50;;;;;;5026686;28;20508;-80
2022/10/06 12:56:55;;;;;;;;;;;20.90;99.30;;;;;;5030538;28;20627;-82
2022/10/06 12:59:31;;;;;;;0.00;0.00;;;20.80;99.20;;;;;;5048866;28;20351;-80
2022/10/06 13:02:24;;;;;;;0.10;0.10;;;21.20;99.90;;;;;;5044750;28;20138;-84
2022/10/06 13:04:58;;;;;;;2.55;0.93;;;21.30;98.70;;;;;;5031054;28;20085;-79
2022/10/06 13:07:32;;;;;;;0.00;0.00;;;20.80;97.80;;;;;;5010845;28;22574;-82
2022/10/06 13:10:13;;;;;;;2.08;1.05;;;20.40;98.70;;;;;;5032933;28;20041;-84
2022/10/06 13:12:49;;;;;;;0.00;0.00;;;20.50;99.30;;;;;;5029896;28;20050;-84
2022/10/06 13:15:19;;;;;;;0.75;0.75;;;20.30;99.50;;;;;;5031450;28;20052;-82
2022/10/06 13:17:49;;;;;;;0.22;0.20;;;20.10;99.50;;;;;;5029864;28;20049;-85
2022/10/06 13:20:41;;;;;;;0.00;0.00;;;20.00;99.40;;;;;;5029760;28;20046;-84